sensor_id;sensor_type;location;lat;lon;timestamp;temperature;humidity
17452;DHT22;8843;48.838;9.324;2022-07-19T00:00:00;24.60;54.00
17452;DHT22;8843;48.838;9.324;2022-07-19T00:02:29;24.60;53.90
17452;DHT22;8843;48.838;9.324;2022-07-19T00:04:56;24.60;53.90
17452;DHT22;8843;48.838;9.324;2022-07-19T00:07:23;24.60;53.90
17452;DHT22;8843;48.838;9.324;2022-07-19T00:09:51;24.60;54.00
17452;DHT22;8843;48.838;9.324;2022-07-19T00:12:18;24.60;54.60
17452;DHT22;8843;48.838;9.324;2022-07-19T00:14:45;24.60;54.10
17452;DHT22;8843;48.838;9.324;2022-07-19T00:17:12;24.60;54.00
17452;DHT22;8843;48.838;9.324;2022-07-19T00:19:39;24.60;54.10
17452;DHT22;8843;48.838;9.324;2022-07-19T00:22:06;24.60;54.00
17452;DHT22;8843;48.838;9.324;2022-07-19T00:24:33;24.60;54.10
17452;DHT22;8843;48.838;9.324;2022-07-19T00:27:02;24.60;54.70
17452;DHT22;8843;48.838;9.324;2022-07-19T00:29:28;24.60;54.10
17452;DHT22;8843;48.838;9.324;2022-07-19T00:31:55;24.50;54.00
17452;DHT22;8843;48.838;9.324;2022-07-19T00:34:22;24.50;54.00
17452;DHT22;8843;48.838;9.324;2022-07-19T00:36:49;24.50;54.10
17452;DHT22;8843;48.838;9.324;2022-07-19T00:39:16;24.50;54.10
17452;DHT22;8843;48.838;9.324;2022-07-19T00:41:43;24.50;54.10
17452;DHT22;8843;48.838;9.324;2022-07-19T00:44:12;24.50;54.20
17452;DHT22;8843;48.838;9.324;2022-07-19T00:46:39;24.50;54.10
17452;DHT22;8843;48.838;9.324;2022-07-19T00:49:06;24.50;54.30
17452;DHT22;8843;48.838;9.324;2022-07-19T00:51:34;24.40;54.10
17452;DHT22;8843;48.838;9.324;2022-07-19T00:54:02;24.50;54.10
17452;DHT22;8843;48.838;9.324;2022-07-19T00:56:32;24.50;54.20
17452;DHT22;8843;48.838;9.324;2022-07-19T00:59:00;24.40;54.10
17452;DHT22;8843;48.838;9.324;2022-07-19T01:01:30;24.40;54.20
17452;DHT22;8843;48.838;9.324;2022-07-19T01:03:58;24.40;54.20
17452;DHT22;8843;48.838;9.324;2022-07-19T01:06:25;24.40;54.20
17452;DHT22;8843;48.838;9.324;2022-07-19T01:08:52;24.40;54.20
17452;DHT22;8843;48.838;9.324;2022-07-19T01:11:19;24.40;54.20
17452;DHT22;8843;48.838;9.324;2022-07-19T01:13:47;24.40;54.20
17452;DHT22;8843;48.838;9.324;2022-07-19T01:16:14;24.40;54.20
17452;DHT22;8843;48.838;9.324;2022-07-19T01:18:42;24.40;54.20
17452;DHT22;8843;48.838;9.324;2022-07-19T01:21:18;24.40;54.20
17452;DHT22;8843;48.838;9.324;2022-07-19T01:23:45;24.40;54.20
17452;DHT22;8843;48.838;9.324;2022-07-19T01:26:12;24.40;54.20
17452;DHT22;8843;48.838;9.324;2022-07-19T01:28:39;24.40;54.30
17452;DHT22;8843;48.838;9.324;2022-07-19T01:31:06;24.40;54.30
17452;DHT22;8843;48.838;9.324;2022-07-19T01:33:38;24.40;54.30
17452;DHT22;8843;48.838;9.324;2022-07-19T01:36:05;24.30;54.30
17452;DHT22;8843;48.838;9.324;2022-07-19T01:38:34;24.30;54.30
17452;DHT22;8843;48.838;9.324;2022-07-19T01:41:01;24.40;54.30
17452;DHT22;8843;48.838;9.324;2022-07-19T01:43:28;24.30;54.30
17452;DHT22;8843;48.838;9.324;2022-07-19T01:45:54;24.30;54.30
17452;DHT22;8843;48.838;9.324;2022-07-19T01:48:21;24.30;54.40
17452;DHT22;8843;48.838;9.324;2022-07-19T01:50:48;24.30;54.40
17452;DHT22;8843;48.838;9.324;2022-07-19T01:53:15;24.30;54.40
17452;DHT22;8843;48.838;9.324;2022-07-19T01:55:44;24.30;54.30
17452;DHT22;8843;48.838;9.324;2022-07-19T01:58:10;24.30;54.30
17452;DHT22;8843;48.838;9.324;2022-07-19T02:00:37;24.30;54.40
17452;DHT22;8843;48.838;9.324;2022-07-19T02:03:04;24.30;54.40
17452;DHT22;8843;48.838;9.324;2022-07-19T02:05:31;24.30;54.40
17452;DHT22;8843;48.838;9.324;2022-07-19T02:07:59;24.30;54.30
17452;DHT22;8843;48.838;9.324;2022-07-19T02:10:26;24.30;54.30
17452;DHT22;8843;48.838;9.324;2022-07-19T02:12:54;24.30;54.40
17452;DHT22;8843;48.838;9.324;2022-07-19T02:15:21;24.20;54.30
17452;DHT22;8843;48.838;9.324;2022-07-19T02:17:48;24.20;54.30
17452;DHT22;8843;48.838;9.324;2022-07-19T02:20:15;24.20;54.30
17452;DHT22;8843;48.838;9.324;2022-07-19T02:22:42;24.20;55.00
17452;DHT22;8843;48.838;9.324;2022-07-19T02:25:09;24.20;54.40
17452;DHT22;8843;48.838;9.324;2022-07-19T02:27:36;24.20;54.40
17452;DHT22;8843;48.838;9.324;2022-07-19T02:30:06;24.20;54.40
17452;DHT22;8843;48.838;9.324;2022-07-19T02:32:33;24.20;54.40
17452;DHT22;8843;48.838;9.324;2022-07-19T02:35:00;24.20;54.50
17452;DHT22;8843;48.838;9.324;2022-07-19T02:37:27;24.20;54.50
17452;DHT22;8843;48.838;9.324;2022-07-19T02:39:53;24.20;54.40
17452;DHT22;8843;48.838;9.324;2022-07-19T02:42:20;24.10;54.40
17452;DHT22;8843;48.838;9.324;2022-07-19T02:44:47;24.10;54.40
17452;DHT22;8843;48.838;9.324;2022-07-19T02:47:16;24.10;54.40
17452;DHT22;8843;48.838;9.324;2022-07-19T02:49:43;24.10;54.50
17452;DHT22;8843;48.838;9.324;2022-07-19T02:52:09;24.10;54.40
17452;DHT22;8843;48.838;9.324;2022-07-19T02:54:36;24.10;54.50
17452;DHT22;8843;48.838;9.324;2022-07-19T02:57:03;24.10;54.50
17452;DHT22;8843;48.838;9.324;2022-07-19T02:59:30;24.10;54.50
17452;DHT22;8843;48.838;9.324;2022-07-19T03:01:57;24.10;54.60
17452;DHT22;8843;48.838;9.324;2022-07-19T03:04:25;24.10;54.50
17452;DHT22;8843;48.838;9.324;2022-07-19T03:06:52;24.10;54.60
17452;DHT22;8843;48.838;9.324;2022-07-19T03:09:20;24.10;54.50
17452;DHT22;8843;48.838;9.324;2022-07-19T03:11:47;24.10;55.20
17452;DHT22;8843;48.838;9.324;2022-07-19T03:14:14;24.10;54.60
17452;DHT22;8843;48.838;9.324;2022-07-19T03:16:41;24.00;54.50
17452;DHT22;8843;48.838;9.324;2022-07-19T03:19:08;24.00;55.10
17452;DHT22;8843;48.838;9.324;2022-07-19T03:21:36;24.00;54.50
17452;DHT22;8843;48.838;9.324;2022-07-19T03:24:03;24.00;54.50
17452;DHT22;8843;48.838;9.324;2022-07-19T03:26:30;24.00;54.50
17452;DHT22;8843;48.838;9.324;2022-07-19T03:28:57;24.00;54.50
17452;DHT22;8843;48.838;9.324;2022-07-19T03:31:24;24.00;54.50
17452;DHT22;8843;48.838;9.324;2022-07-19T03:33:51;24.00;54.50
17452;DHT22;8843;48.838;9.324;2022-07-19T03:36:18;24.00;54.40
17452;DHT22;8843;48.838;9.324;2022-07-19T03:38:46;24.00;54.40
17452;DHT22;8843;48.838;9.324;2022-07-19T03:41:13;24.00;54.40
17452;DHT22;8843;48.838;9.324;2022-07-19T03:43:40;24.00;54.40
17452;DHT22;8843;48.838;9.324;2022-07-19T03:46:07;24.00;54.40
17452;DHT22;8843;48.838;9.324;2022-07-19T03:48:34;24.00;54.40
17452;DHT22;8843;48.838;9.324;2022-07-19T03:51:01;24.00;55.00
17452;DHT22;8843;48.838;9.324;2022-07-19T03:53:28;24.00;54.40
17452;DHT22;8843;48.838;9.324;2022-07-19T03:55:56;24.00;54.50
17452;DHT22;8843;48.838;9.324;2022-07-19T03:58:23;24.00;54.40
17452;DHT22;8843;48.838;9.324;2022-07-19T04:00:50;23.90;54.40
17452;DHT22;8843;48.838;9.324;2022-07-19T04:03:17;23.90;54.40
17452;DHT22;8843;48.838;9.324;2022-07-19T04:05:44;23.90;54.40
17452;DHT22;8843;48.838;9.324;2022-07-19T04:08:11;23.90;54.40
17452;DHT22;8843;48.838;9.324;2022-07-19T04:10:38;23.90;54.40
17452;DHT22;8843;48.838;9.324;2022-07-19T04:13:07;23.90;54.40
17452;DHT22;8843;48.838;9.324;2022-07-19T04:15:34;23.90;54.40
17452;DHT22;8843;48.838;9.324;2022-07-19T04:18:01;23.90;54.40
17452;DHT22;8843;48.838;9.324;2022-07-19T04:20:28;23.90;54.50
17452;DHT22;8843;48.838;9.324;2022-07-19T04:22:55;23.90;54.40
17452;DHT22;8843;48.838;9.324;2022-07-19T04:25:22;23.90;54.40
17452;DHT22;8843;48.838;9.324;2022-07-19T04:27:49;23.90;54.50
17452;DHT22;8843;48.838;9.324;2022-07-19T04:30:18;23.80;54.30
17452;DHT22;8843;48.838;9.324;2022-07-19T04:32:45;23.80;54.40
17452;DHT22;8843;48.838;9.324;2022-07-19T04:35:11;23.80;54.40
17452;DHT22;8843;48.838;9.324;2022-07-19T04:37:38;23.80;54.40
17452;DHT22;8843;48.838;9.324;2022-07-19T04:40:07;23.70;55.10
17452;DHT22;8843;48.838;9.324;2022-07-19T04:42:34;23.70;55.00
17452;DHT22;8843;48.838;9.324;2022-07-19T04:45:01;23.70;54.90
17452;DHT22;8843;48.838;9.324;2022-07-19T04:47:30;23.70;54.90
17452;DHT22;8843;48.838;9.324;2022-07-19T04:49:57;23.70;54.90
17452;DHT22;8843;48.838;9.324;2022-07-19T04:52:24;23.60;55.00
17452;DHT22;8843;48.838;9.324;2022-07-19T04:54:51;23.60;54.90
17452;DHT22;8843;48.838;9.324;2022-07-19T04:57:17;23.70;55.00
17452;DHT22;8843;48.838;9.324;2022-07-19T04:59:44;23.70;54.80
17452;DHT22;8843;48.838;9.324;2022-07-19T05:02:11;23.70;54.80
17452;DHT22;8843;48.838;9.324;2022-07-19T05:04:40;23.70;54.70
17452;DHT22;8843;48.838;9.324;2022-07-19T05:07:06;23.70;54.70
17452;DHT22;8843;48.838;9.324;2022-07-19T05:09:33;23.70;54.70
17452;DHT22;8843;48.838;9.324;2022-07-19T05:12:00;23.70;54.70
17452;DHT22;8843;48.838;9.324;2022-07-19T05:14:30;23.70;54.70
17452;DHT22;8843;48.838;9.324;2022-07-19T05:16:57;23.70;54.70
17452;DHT22;8843;48.838;9.324;2022-07-19T05:19:24;23.70;54.80
17452;DHT22;8843;48.838;9.324;2022-07-19T05:21:53;23.70;54.80
17452;DHT22;8843;48.838;9.324;2022-07-19T05:24:20;23.70;54.70
17452;DHT22;8843;48.838;9.324;2022-07-19T05:26:46;23.70;54.80
17452;DHT22;8843;48.838;9.324;2022-07-19T05:29:14;23.70;54.90
17452;DHT22;8843;48.838;9.324;2022-07-19T05:31:41;23.70;54.90
17452;DHT22;8843;48.838;9.324;2022-07-19T05:34:08;23.70;54.80
17452;DHT22;8843;48.838;9.324;2022-07-19T05:36:34;23.70;55.50
17452;DHT22;8843;48.838;9.324;2022-07-19T05:39:03;23.70;54.90
17452;DHT22;8843;48.838;9.324;2022-07-19T05:41:30;23.70;54.90
17452;DHT22;8843;48.838;9.324;2022-07-19T05:43:57;23.60;54.80
17452;DHT22;8843;48.838;9.324;2022-07-19T05:46:25;23.60;54.90
17452;DHT22;8843;48.838;9.324;2022-07-19T05:48:52;23.60;54.90
17452;DHT22;8843;48.838;9.324;2022-07-19T05:51:18;23.70;55.00
17452;DHT22;8843;48.838;9.324;2022-07-19T05:53:45;23.60;54.90
17452;DHT22;8843;48.838;9.324;2022-07-19T05:56:14;23.60;55.00
17452;DHT22;8843;48.838;9.324;2022-07-19T05:58:41;23.60;55.00
17452;DHT22;8843;48.838;9.324;2022-07-19T06:01:07;23.60;55.60
17452;DHT22;8843;48.838;9.324;2022-07-19T06:03:49;23.60;55.10
17452;DHT22;8843;48.838;9.324;2022-07-19T06:06:17;23.60;55.10
17452;DHT22;8843;48.838;9.324;2022-07-19T06:08:45;23.60;55.10
17452;DHT22;8843;48.838;9.324;2022-07-19T06:11:14;23.60;55.20
17452;DHT22;8843;48.838;9.324;2022-07-19T06:13:42;23.60;55.20
17452;DHT22;8843;48.838;9.324;2022-07-19T06:16:09;23.60;55.20
17452;DHT22;8843;48.838;9.324;2022-07-19T06:18:39;23.60;55.20
17452;DHT22;8843;48.838;9.324;2022-07-19T06:21:12;23.60;55.20
17452;DHT22;8843;48.838;9.324;2022-07-19T06:23:40;23.70;55.30
17452;DHT22;8843;48.838;9.324;2022-07-19T06:26:08;23.60;55.30
17452;DHT22;8843;48.838;9.324;2022-07-19T06:28:37;23.70;55.40
17452;DHT22;8843;48.838;9.324;2022-07-19T06:31:05;23.60;55.30
17452;DHT22;8843;48.838;9.324;2022-07-19T06:33:33;23.60;56.00
17452;DHT22;8843;48.838;9.324;2022-07-19T06:36:00;23.60;55.50
17452;DHT22;8843;48.838;9.324;2022-07-19T06:38:27;23.60;55.50
17452;DHT22;8843;48.838;9.324;2022-07-19T06:40:53;23.70;55.60
17452;DHT22;8843;48.838;9.324;2022-07-19T06:43:20;23.70;55.60
17452;DHT22;8843;48.838;9.324;2022-07-19T06:45:49;23.70;55.60
17452;DHT22;8843;48.838;9.324;2022-07-19T06:48:16;23.70;55.60
17452;DHT22;8843;48.838;9.324;2022-07-19T06:50:43;23.70;55.60
17452;DHT22;8843;48.838;9.324;2022-07-19T06:53:10;23.70;55.50
17452;DHT22;8843;48.838;9.324;2022-07-19T06:55:37;23.70;55.60
17452;DHT22;8843;48.838;9.324;2022-07-19T06:58:04;23.70;55.60
17452;DHT22;8843;48.838;9.324;2022-07-19T07:00:30;23.70;55.70
17452;DHT22;8843;48.838;9.324;2022-07-19T07:02:59;23.70;55.60
17452;DHT22;8843;48.838;9.324;2022-07-19T07:05:26;23.70;55.60
17452;DHT22;8843;48.838;9.324;2022-07-19T07:07:52;23.70;55.60
17452;DHT22;8843;48.838;9.324;2022-07-19T07:10:20;23.70;56.40
17452;DHT22;8843;48.838;9.324;2022-07-19T07:12:47;23.70;56.20
17452;DHT22;8843;48.838;9.324;2022-07-19T07:15:15;23.60;56.80
17452;DHT22;8843;48.838;9.324;2022-07-19T07:17:43;23.60;56.90
17452;DHT22;8843;48.838;9.324;2022-07-19T07:20:11;23.60;57.00
17452;DHT22;8843;48.838;9.324;2022-07-19T07:22:38;23.60;56.90
17452;DHT22;8843;48.838;9.324;2022-07-19T07:25:06;23.70;56.00
17452;DHT22;8843;48.838;9.324;2022-07-19T07:27:33;23.80;55.60
17452;DHT22;8843;48.838;9.324;2022-07-19T07:30:00;23.80;55.70
17452;DHT22;8843;48.838;9.324;2022-07-19T07:32:27;23.80;56.10
17452;DHT22;8843;48.838;9.324;2022-07-19T07:34:54;23.80;56.00
17452;DHT22;8843;48.838;9.324;2022-07-19T07:37:22;23.90;56.20
17452;DHT22;8843;48.838;9.324;2022-07-19T07:39:51;23.90;56.00
17452;DHT22;8843;48.838;9.324;2022-07-19T07:42:18;24.00;56.70
17452;DHT22;8843;48.838;9.324;2022-07-19T07:44:45;24.00;56.50
17452;DHT22;8843;48.838;9.324;2022-07-19T07:47:12;24.10;56.30
17452;DHT22;8843;48.838;9.324;2022-07-19T07:49:39;24.10;57.60
17452;DHT22;8843;48.838;9.324;2022-07-19T07:52:07;24.10;56.50
17452;DHT22;8843;48.838;9.324;2022-07-19T07:54:35;24.20;56.30
17452;DHT22;8843;48.838;9.324;2022-07-19T07:57:02;24.30;56.20
17452;DHT22;8843;48.838;9.324;2022-07-19T07:59:29;24.30;56.50
17452;DHT22;8843;48.838;9.324;2022-07-19T08:01:56;24.40;56.10
17452;DHT22;8843;48.838;9.324;2022-07-19T08:04:23;24.50;57.00
17452;DHT22;8843;48.838;9.324;2022-07-19T08:06:50;24.50;56.40
17452;DHT22;8843;48.838;9.324;2022-07-19T08:09:17;24.60;52.70
17452;DHT22;8843;48.838;9.324;2022-07-19T08:11:46;24.70;54.50
17452;DHT22;8843;48.838;9.324;2022-07-19T08:14:13;24.70;54.50
17452;DHT22;8843;48.838;9.324;2022-07-19T08:16:40;24.80;54.10
17452;DHT22;8843;48.838;9.324;2022-07-19T08:19:07;24.90;54.10
17452;DHT22;8843;48.838;9.324;2022-07-19T08:21:34;25.00;54.20
17452;DHT22;8843;48.838;9.324;2022-07-19T08:24:01;25.00;53.60
17452;DHT22;8843;48.838;9.324;2022-07-19T08:26:28;25.10;52.80
17452;DHT22;8843;48.838;9.324;2022-07-19T08:28:58;25.20;52.90
17452;DHT22;8843;48.838;9.324;2022-07-19T08:31:25;25.30;53.50
17452;DHT22;8843;48.838;9.324;2022-07-19T08:33:52;25.30;53.80
17452;DHT22;8843;48.838;9.324;2022-07-19T08:36:18;25.50;53.20
17452;DHT22;8843;48.838;9.324;2022-07-19T08:38:45;25.60;52.20
17452;DHT22;8843;48.838;9.324;2022-07-19T08:41:13;25.60;52.20
17452;DHT22;8843;48.838;9.324;2022-07-19T08:43:40;25.60;51.80
17452;DHT22;8843;48.838;9.324;2022-07-19T08:46:08;25.70;52.00
17452;DHT22;8843;48.838;9.324;2022-07-19T08:48:36;25.80;52.40
17452;DHT22;8843;48.838;9.324;2022-07-19T08:51:05;25.90;51.60
17452;DHT22;8843;48.838;9.324;2022-07-19T08:53:34;26.00;51.90
17452;DHT22;8843;48.838;9.324;2022-07-19T08:56:04;26.00;52.50
17452;DHT22;8843;48.838;9.324;2022-07-19T08:58:51;26.20;51.40
17452;DHT22;8843;48.838;9.324;2022-07-19T09:01:18;26.20;51.40
17452;DHT22;8843;48.838;9.324;2022-07-19T09:04:09;26.50;51.10
17452;DHT22;8843;48.838;9.324;2022-07-19T09:06:42;26.60;50.30
17452;DHT22;8843;48.838;9.324;2022-07-19T09:09:10;26.70;49.80
17452;DHT22;8843;48.838;9.324;2022-07-19T09:11:40;26.60;50.10
17452;DHT22;8843;48.838;9.324;2022-07-19T09:14:15;26.70;50.00
17452;DHT22;8843;48.838;9.324;2022-07-19T09:16:58;26.90;48.90
17452;DHT22;8843;48.838;9.324;2022-07-19T09:19:28;26.80;49.70
17452;DHT22;8843;48.838;9.324;2022-07-19T09:21:59;26.90;48.40
17452;DHT22;8843;48.838;9.324;2022-07-19T09:24:27;27.20;48.80
17452;DHT22;8843;48.838;9.324;2022-07-19T09:26:59;27.20;48.20
17452;DHT22;8843;48.838;9.324;2022-07-19T09:29:27;27.40;47.40
17452;DHT22;8843;48.838;9.324;2022-07-19T09:32:05;27.50;47.50
17452;DHT22;8843;48.838;9.324;2022-07-19T09:34:34;27.50;47.20
17452;DHT22;8843;48.838;9.324;2022-07-19T09:37:12;27.70;47.30
17452;DHT22;8843;48.838;9.324;2022-07-19T09:39:39;27.90;46.20
17452;DHT22;8843;48.838;9.324;2022-07-19T09:42:07;28.10;45.70
17452;DHT22;8843;48.838;9.324;2022-07-19T09:44:34;28.10;46.10
17452;DHT22;8843;48.838;9.324;2022-07-19T09:47:03;28.10;45.20
17452;DHT22;8843;48.838;9.324;2022-07-19T09:49:30;28.10;45.20
17452;DHT22;8843;48.838;9.324;2022-07-19T09:51:57;28.20;44.80
17452;DHT22;8843;48.838;9.324;2022-07-19T09:54:27;28.10;45.40
17452;DHT22;8843;48.838;9.324;2022-07-19T09:56:55;28.40;45.00
17452;DHT22;8843;48.838;9.324;2022-07-19T09:59:24;28.30;45.50
17452;DHT22;8843;48.838;9.324;2022-07-19T10:01:52;28.20;45.10
17452;DHT22;8843;48.838;9.324;2022-07-19T10:04:22;28.50;46.20
17452;DHT22;8843;48.838;9.324;2022-07-19T10:06:50;28.50;45.20
17452;DHT22;8843;48.838;9.324;2022-07-19T10:09:19;28.40;45.90
17452;DHT22;8843;48.838;9.324;2022-07-19T10:11:47;28.80;44.80
17452;DHT22;8843;48.838;9.324;2022-07-19T10:14:14;29.00;44.10
17452;DHT22;8843;48.838;9.324;2022-07-19T10:16:58;29.00;44.10
17452;DHT22;8843;48.838;9.324;2022-07-19T10:19:34;29.20;44.10
17452;DHT22;8843;48.838;9.324;2022-07-19T10:22:04;29.20;43.70
17452;DHT22;8843;48.838;9.324;2022-07-19T10:24:42;29.20;44.30
17452;DHT22;8843;48.838;9.324;2022-07-19T10:27:10;29.10;44.50
17452;DHT22;8843;48.838;9.324;2022-07-19T10:29:37;29.30;42.70
17452;DHT22;8843;48.838;9.324;2022-07-19T10:32:05;29.50;42.90
17452;DHT22;8843;48.838;9.324;2022-07-19T10:34:34;29.50;43.80
17452;DHT22;8843;48.838;9.324;2022-07-19T10:37:03;29.30;44.10
17452;DHT22;8843;48.838;9.324;2022-07-19T10:39:31;29.60;42.80
17452;DHT22;8843;48.838;9.324;2022-07-19T10:42:20;29.80;42.60
17452;DHT22;8843;48.838;9.324;2022-07-19T10:45:10;29.80;41.80
17452;DHT22;8843;48.838;9.324;2022-07-19T10:48:05;30.00;41.20
17452;DHT22;8843;48.838;9.324;2022-07-19T10:51:00;30.40;41.30
17452;DHT22;8843;48.838;9.324;2022-07-19T10:53:55;30.20;41.30
17452;DHT22;8843;48.838;9.324;2022-07-19T10:59:12;30.50;40.90
17452;DHT22;8843;48.838;9.324;2022-07-19T11:01:54;30.60;40.60
17452;DHT22;8843;48.838;9.324;2022-07-19T11:04:25;30.70;40.70
17452;DHT22;8843;48.838;9.324;2022-07-19T11:09:50;30.70;39.80
17452;DHT22;8843;48.838;9.324;2022-07-19T11:12:29;30.80;40.20
17452;DHT22;8843;48.838;9.324;2022-07-19T11:14:57;30.90;40.80
17452;DHT22;8843;48.838;9.324;2022-07-19T11:17:24;31.10;40.20
17452;DHT22;8843;48.838;9.324;2022-07-19T11:19:59;31.20;39.60
17452;DHT22;8843;48.838;9.324;2022-07-19T11:22:26;31.40;39.30
17452;DHT22;8843;48.838;9.324;2022-07-19T11:24:59;31.20;39.60
17452;DHT22;8843;48.838;9.324;2022-07-19T11:27:27;31.50;39.10
17452;DHT22;8843;48.838;9.324;2022-07-19T11:29:54;31.30;39.40
17452;DHT22;8843;48.838;9.324;2022-07-19T11:32:21;31.40;39.00
17452;DHT22;8843;48.838;9.324;2022-07-19T11:34:54;31.50;39.30
17452;DHT22;8843;48.838;9.324;2022-07-19T11:37:24;31.70;38.90
17452;DHT22;8843;48.838;9.324;2022-07-19T11:39:51;31.80;38.60
17452;DHT22;8843;48.838;9.324;2022-07-19T11:42:32;31.90;38.40
17452;DHT22;8843;48.838;9.324;2022-07-19T11:45:08;31.90;38.50
17452;DHT22;8843;48.838;9.324;2022-07-19T11:47:35;31.60;38.70
17452;DHT22;8843;48.838;9.324;2022-07-19T11:50:05;32.00;38.10
17452;DHT22;8843;48.838;9.324;2022-07-19T11:52:47;32.10;38.00
17452;DHT22;8843;48.838;9.324;2022-07-19T11:55:15;32.10;38.20
17452;DHT22;8843;48.838;9.324;2022-07-19T11:57:44;31.80;38.20
17452;DHT22;8843;48.838;9.324;2022-07-19T12:00:12;32.10;38.00
17452;DHT22;8843;48.838;9.324;2022-07-19T12:02:58;32.10;37.30
17452;DHT22;8843;48.838;9.324;2022-07-19T12:05:29;32.20;37.40
17452;DHT22;8843;48.838;9.324;2022-07-19T12:07:59;32.10;38.10
17452;DHT22;8843;48.838;9.324;2022-07-19T12:10:41;32.00;38.20
17452;DHT22;8843;48.838;9.324;2022-07-19T12:13:11;32.00;38.30
17452;DHT22;8843;48.838;9.324;2022-07-19T12:15:50;32.10;37.60
17452;DHT22;8843;48.838;9.324;2022-07-19T12:18:19;32.30;37.70
17452;DHT22;8843;48.838;9.324;2022-07-19T12:21:14;32.30;37.80
17452;DHT22;8843;48.838;9.324;2022-07-19T12:23:41;32.10;38.40
17452;DHT22;8843;48.838;9.324;2022-07-19T12:26:09;32.40;37.80
17452;DHT22;8843;48.838;9.324;2022-07-19T12:28:37;32.50;37.40
17452;DHT22;8843;48.838;9.324;2022-07-19T12:31:06;32.50;37.60
17452;DHT22;8843;48.838;9.324;2022-07-19T12:33:33;32.40;37.20
17452;DHT22;8843;48.838;9.324;2022-07-19T12:36:00;32.20;36.80
17452;DHT22;8843;48.838;9.324;2022-07-19T12:38:31;32.10;37.50
17452;DHT22;8843;48.838;9.324;2022-07-19T12:41:06;32.30;37.50
17452;DHT22;8843;48.838;9.324;2022-07-19T12:43:33;32.40;37.00
17452;DHT22;8843;48.838;9.324;2022-07-19T12:46:02;32.60;37.40
17452;DHT22;8843;48.838;9.324;2022-07-19T12:48:29;32.40;37.70
17452;DHT22;8843;48.838;9.324;2022-07-19T12:50:56;32.60;37.30
17452;DHT22;8843;48.838;9.324;2022-07-19T12:53:24;32.60;37.40
17452;DHT22;8843;48.838;9.324;2022-07-19T12:55:51;32.60;37.30
17452;DHT22;8843;48.838;9.324;2022-07-19T12:58:18;32.50;36.80
17452;DHT22;8843;48.838;9.324;2022-07-19T13:01:00;32.60;37.00
17452;DHT22;8843;48.838;9.324;2022-07-19T13:03:27;32.50;37.10
17452;DHT22;8843;48.838;9.324;2022-07-19T13:05:54;32.60;37.40
17452;DHT22;8843;48.838;9.324;2022-07-19T13:08:21;32.60;37.30
17452;DHT22;8843;48.838;9.324;2022-07-19T13:10:48;32.80;36.80
17452;DHT22;8843;48.838;9.324;2022-07-19T13:13:15;32.80;38.00
17452;DHT22;8843;48.838;9.324;2022-07-19T13:15:42;32.60;37.80
17452;DHT22;8843;48.838;9.324;2022-07-19T13:18:10;32.80;37.70
17452;DHT22;8843;48.838;9.324;2022-07-19T13:20:37;32.80;37.20
17452;DHT22;8843;48.838;9.324;2022-07-19T13:23:04;32.90;37.20
17452;DHT22;8843;48.838;9.324;2022-07-19T13:25:31;32.80;37.30
17452;DHT22;8843;48.838;9.324;2022-07-19T13:27:58;32.60;37.80
17452;DHT22;8843;48.838;9.324;2022-07-19T13:30:25;32.80;36.70
17452;DHT22;8843;48.838;9.324;2022-07-19T13:32:52;32.50;37.20
17452;DHT22;8843;48.838;9.324;2022-07-19T13:35:21;32.60;37.10
17452;DHT22;8843;48.838;9.324;2022-07-19T13:37:48;32.70;37.20
17452;DHT22;8843;48.838;9.324;2022-07-19T13:40:15;32.20;38.10
17452;DHT22;8843;48.838;9.324;2022-07-19T13:42:42;32.20;37.80
17452;DHT22;8843;48.838;9.324;2022-07-19T13:45:10;32.10;38.20
17452;DHT22;8843;48.838;9.324;2022-07-19T13:47:37;32.30;37.30
17452;DHT22;8843;48.838;9.324;2022-07-19T13:50:04;32.60;37.70
17452;DHT22;8843;48.838;9.324;2022-07-19T13:52:35;32.50;37.60
17452;DHT22;8843;48.838;9.324;2022-07-19T13:55:03;32.50;37.30
17452;DHT22;8843;48.838;9.324;2022-07-19T13:57:30;32.40;37.90
17452;DHT22;8843;48.838;9.324;2022-07-19T13:59:57;32.30;37.70
17452;DHT22;8843;48.838;9.324;2022-07-19T14:02:24;32.30;37.30
17452;DHT22;8843;48.838;9.324;2022-07-19T14:04:51;32.30;37.30
17452;DHT22;8843;48.838;9.324;2022-07-19T14:07:18;32.30;37.00
17452;DHT22;8843;48.838;9.324;2022-07-19T14:09:46;32.50;37.30
17452;DHT22;8843;48.838;9.324;2022-07-19T14:12:13;32.20;37.80
17452;DHT22;8843;48.838;9.324;2022-07-19T14:14:40;32.20;37.90
17452;DHT22;8843;48.838;9.324;2022-07-19T14:17:07;32.20;38.20
17452;DHT22;8843;48.838;9.324;2022-07-19T14:19:35;32.30;37.30
17452;DHT22;8843;48.838;9.324;2022-07-19T14:22:03;32.40;37.30
17452;DHT22;8843;48.838;9.324;2022-07-19T14:24:31;32.50;37.10
17452;DHT22;8843;48.838;9.324;2022-07-19T14:27:00;32.50;37.20
17452;DHT22;8843;48.838;9.324;2022-07-19T14:29:27;31.90;37.60
17452;DHT22;8843;48.838;9.324;2022-07-19T14:31:54;32.10;37.10
17452;DHT22;8843;48.838;9.324;2022-07-19T14:34:21;31.00;39.50
17452;DHT22;8843;48.838;9.324;2022-07-19T14:36:48;31.60;38.00
17452;DHT22;8843;48.838;9.324;2022-07-19T14:39:15;31.90;37.60
17452;DHT22;8843;48.838;9.324;2022-07-19T14:41:42;31.90;37.20
17452;DHT22;8843;48.838;9.324;2022-07-19T14:44:11;32.20;37.40
17452;DHT22;8843;48.838;9.324;2022-07-19T14:46:38;32.10;37.30
17452;DHT22;8843;48.838;9.324;2022-07-19T14:49:05;32.10;37.30
17452;DHT22;8843;48.838;9.324;2022-07-19T14:51:32;32.10;37.10
17452;DHT22;8843;48.838;9.324;2022-07-19T14:53:59;32.00;37.20
17452;DHT22;8843;48.838;9.324;2022-07-19T14:56:27;32.10;36.90
17452;DHT22;8843;48.838;9.324;2022-07-19T14:58:54;32.10;36.50
17452;DHT22;8843;48.838;9.324;2022-07-19T15:01:22;32.10;36.60
17452;DHT22;8843;48.838;9.324;2022-07-19T15:03:49;32.10;37.10
17452;DHT22;8843;48.838;9.324;2022-07-19T15:06:16;32.20;36.80
17452;DHT22;8843;48.838;9.324;2022-07-19T15:08:43;32.10;36.80
17452;DHT22;8843;48.838;9.324;2022-07-19T15:11:10;31.90;36.80
17452;DHT22;8843;48.838;9.324;2022-07-19T15:13:37;32.10;36.60
17452;DHT22;8843;48.838;9.324;2022-07-19T15:16:05;31.90;36.50
17452;DHT22;8843;48.838;9.324;2022-07-19T15:18:33;31.70;36.50
17452;DHT22;8843;48.838;9.324;2022-07-19T15:21:00;31.60;36.60
17452;DHT22;8843;48.838;9.324;2022-07-19T15:23:27;31.60;37.40
17452;DHT22;8843;48.838;9.324;2022-07-19T15:25:54;31.40;37.00
17452;DHT22;8843;48.838;9.324;2022-07-19T15:28:28;31.50;36.70
17452;DHT22;8843;48.838;9.324;2022-07-19T15:31:04;30.10;39.70
17452;DHT22;8843;48.838;9.324;2022-07-19T15:33:32;29.70;40.70
17452;DHT22;8843;48.838;9.324;2022-07-19T15:36:00;29.60;42.10
17452;DHT22;8843;48.838;9.324;2022-07-19T15:38:27;29.60;42.20
17452;DHT22;8843;48.838;9.324;2022-07-19T15:40:54;29.60;41.30
17452;DHT22;8843;48.838;9.324;2022-07-19T15:43:21;29.50;41.40
17452;DHT22;8843;48.838;9.324;2022-07-19T15:45:48;30.00;38.70
17452;DHT22;8843;48.838;9.324;2022-07-19T15:48:15;29.00;42.30
17452;DHT22;8843;48.838;9.324;2022-07-19T15:50:45;27.90;46.00
17452;DHT22;8843;48.838;9.324;2022-07-19T15:53:12;27.10;48.40
17452;DHT22;8843;48.838;9.324;2022-07-19T15:55:39;27.00;44.00
17452;DHT22;8843;48.838;9.324;2022-07-19T15:58:07;28.90;41.60